createdAt,value
2022-12-20T00:04:28.154Z,0.79
2022-12-20T00:09:29.939Z,0.76
2022-12-20T00:14:31.957Z,0.72
2022-12-20T00:19:33.654Z,0.61
2022-12-20T00:24:35.633Z,0.62
2022-12-20T00:29:37.397Z,0.56
2022-12-20T00:34:39.090Z,0.52
2022-12-20T00:39:40.804Z,0.49
2022-12-20T00:44:42.465Z,0.44
2022-12-20T00:49:44.531Z,0.50
2022-12-20T00:54:46.249Z,0.57
2022-12-20T00:59:48.324Z,0.62
2022-12-20T01:04:50.348Z,0.56
2022-12-20T01:09:52.175Z,0.56
2022-12-20T01:14:53.927Z,0.61
2022-12-20T01:19:55.673Z,0.66
2022-12-20T01:24:57.750Z,0.69
2022-12-20T01:29:59.436Z,0.68
2022-12-20T01:35:01.298Z,0.71
2022-12-20T01:40:03.411Z,0.70
2022-12-20T01:45:13.136Z,0.70
2022-12-20T01:50:14.827Z,0.65
2022-12-20T01:55:26.515Z,0.72
2022-12-20T02:00:29.462Z,0.81
2022-12-20T02:05:39.150Z,0.86
2022-12-20T02:11:14.689Z,0.84
2022-12-20T02:16:24.887Z,0.72
2022-12-20T02:22:15.419Z,0.61
2022-12-20T02:27:19.848Z,0.65
2022-12-20T02:32:58.515Z,0.67
2022-12-20T02:38:03.776Z,0.55
2022-12-20T02:43:28.712Z,0.57
2022-12-20T02:48:33.641Z,0.60
2022-12-20T02:53:37.768Z,0.63
2022-12-20T02:59:17.284Z,0.65
2022-12-20T03:04:25.825Z,0.62
2022-12-20T03:09:28.775Z,0.60
2022-12-20T03:14:30.611Z,0.57
2022-12-20T03:19:35.328Z,0.56
2022-12-20T03:24:37.049Z,0.55
2022-12-20T03:29:44.585Z,0.62
2022-12-20T03:34:47.179Z,0.59
2022-12-20T03:39:52.795Z,0.55
2022-12-20T03:44:55.412Z,0.51
2022-12-20T03:49:59.624Z,0.53
2022-12-20T03:55:03.703Z,0.67
2022-12-20T04:00:14.064Z,0.65
2022-12-20T04:05:21.939Z,0.63
2022-12-20T04:10:23.666Z,0.67
2022-12-20T04:15:25.611Z,0.66
2022-12-20T04:20:28.036Z,0.57
2022-12-20T04:25:43.731Z,0.55
2022-12-20T04:30:46.440Z,0.54
2022-12-20T04:35:54.573Z,0.45
2022-12-20T04:40:58.605Z,0.45
2022-12-20T04:46:03.060Z,0.52
2022-12-20T04:51:04.966Z,0.54
2022-12-20T04:56:07.540Z,0.61
2022-12-20T05:01:09.653Z,0.73
2022-12-20T05:06:20.062Z,0.80
2022-12-20T05:11:22.516Z,0.85
2022-12-20T05:16:26.152Z,0.74
2022-12-20T05:21:47.224Z,0.69
2022-12-20T05:26:49.627Z,0.71
2022-12-20T05:31:53.758Z,0.73
2022-12-20T05:36:56.042Z,0.68
2022-12-20T05:42:00.811Z,0.58
2022-12-20T05:47:03.458Z,0.64
2022-12-20T05:52:08.406Z,0.69
2022-12-20T05:57:12.435Z,0.64
2022-12-20T06:02:16.187Z,0.61
2022-12-20T06:07:19.636Z,0.66
2022-12-20T06:12:24.814Z,0.72
2022-12-20T06:17:27.353Z,0.99
2022-12-20T06:22:29.707Z,1.05
2022-12-20T06:27:32.293Z,0.91
2022-12-20T06:32:41.918Z,0.79
2022-12-20T06:37:45.296Z,0.75
2022-12-20T06:42:49.431Z,0.76
2022-12-20T06:47:52.977Z,0.64
2022-12-20T06:52:55.515Z,0.62
2022-12-20T06:57:59.488Z,0.72
2022-12-20T07:03:02.143Z,0.77
2022-12-20T07:08:04.834Z,0.84
2022-12-20T07:13:06.748Z,0.86
2022-12-20T07:18:08.612Z,0.79
2022-12-20T07:23:10.358Z,0.83
2022-12-20T07:28:11.999Z,0.87
2022-12-20T07:33:13.748Z,0.76
2022-12-20T07:38:15.634Z,0.84
2022-12-20T07:43:17.367Z,0.91
2022-12-20T07:48:21.842Z,0.90
2022-12-20T07:53:25.673Z,0.95
2022-12-20T07:58:29.159Z,1.02
2022-12-20T08:03:36.765Z,0.93
2022-12-20T08:08:42.407Z,0.95
2022-12-20T08:13:46.779Z,0.91
2022-12-20T08:18:49.522Z,0.98
2022-12-20T08:23:51.952Z,1.06
2022-12-20T08:28:56.746Z,1.04
2022-12-20T08:33:59.156Z,1.07
2022-12-20T08:39:05.212Z,1.12
2022-12-20T08:44:07.071Z,1.13
2022-12-20T08:49:08.754Z,1.20
2022-12-20T08:54:10.621Z,1.24
2022-12-20T08:59:12.250Z,1.36
2022-12-20T09:04:15.344Z,1.41
2022-12-20T09:09:18.110Z,1.51
2022-12-20T09:14:20.134Z,1.61
2022-12-20T09:19:24.746Z,1.73
2022-12-20T09:24:26.957Z,1.81
2022-12-20T09:29:35.317Z,1.90
2022-12-20T09:34:37.834Z,2.00
2022-12-20T09:39:39.617Z,2.12
2022-12-20T09:44:42.799Z,2.26
2022-12-20T09:49:49.281Z,2.41
2022-12-20T09:55:09.482Z,2.52
2022-12-20T10:00:17.499Z,2.62
2022-12-20T10:05:44.034Z,2.71
2022-12-20T10:11:10.069Z,2.75
2022-12-20T10:16:50.183Z,2.60
2022-12-20T10:22:18.165Z,2.59
2022-12-20T10:27:21.366Z,2.68
2022-12-20T10:32:24.206Z,2.78
2022-12-20T10:37:25.982Z,2.85
2022-12-20T10:42:41.369Z,2.82
2022-12-20T10:47:46.108Z,2.88
2022-12-20T10:53:24.159Z,2.97
2022-12-20T10:58:27.321Z,3.09
2022-12-20T11:03:29.785Z,3.14
2022-12-20T11:08:47.668Z,3.33
2022-12-20T11:13:54.140Z,3.35
2022-12-20T11:19:01.752Z,3.38
2022-12-20T11:24:12.180Z,3.24
2022-12-20T11:29:28.542Z,3.27
2022-12-20T11:34:42.756Z,3.31
2022-12-20T11:40:16.326Z,3.31
2022-12-20T11:45:42.854Z,3.39
2022-12-20T11:51:15.925Z,3.51
2022-12-20T11:56:30.996Z,3.58
2022-12-20T12:01:38.632Z,3.66
2022-12-20T12:07:13.711Z,3.64
2022-12-20T12:12:29.507Z,3.68
2022-12-20T12:17:45.308Z,3.75
2022-12-20T12:22:51.126Z,3.78
2022-12-20T12:27:52.934Z,3.78
2022-12-20T12:33:07.403Z,3.79
2022-12-20T12:38:26.232Z,3.83
2022-12-20T12:43:46.269Z,3.88
2022-12-20T12:48:55.103Z,3.93
2022-12-20T12:54:10.185Z,3.92
2022-12-20T12:59:34.968Z,4.00
2022-12-20T13:05:10.887Z,4.01
2022-12-20T13:10:19.002Z,3.97
2022-12-20T13:15:20.732Z,4.00
2022-12-20T13:20:28.464Z,4.04
2022-12-20T13:25:31.264Z,4.01
2022-12-20T13:30:33.491Z,3.88
2022-12-20T13:35:55.071Z,3.77
2022-12-20T13:41:00.246Z,3.75
2022-12-20T13:46:14.673Z,3.72
2022-12-20T13:51:25.515Z,3.80
2022-12-20T13:56:27.336Z,3.87
2022-12-20T14:01:31.230Z,3.89
2022-12-20T14:06:33.734Z,3.89
2022-12-20T14:11:46.747Z,3.92
2022-12-20T14:16:48.528Z,3.95
2022-12-20T14:21:50.391Z,4.00
2022-12-20T14:26:53.739Z,4.00
2022-12-20T14:31:55.632Z,4.01
2022-12-20T14:37:30.343Z,3.97
2022-12-20T14:42:37.123Z,3.97
2022-12-20T14:47:51.477Z,3.93
2022-12-20T14:52:53.332Z,3.92
2022-12-20T14:57:56.747Z,3.90
2022-12-20T15:03:18.775Z,3.86
2022-12-20T15:08:37.508Z,3.83
2022-12-20T15:13:39.075Z,3.83
2022-12-20T15:18:40.960Z,3.65
2022-12-20T15:23:47.630Z,3.49
2022-12-20T15:28:49.758Z,3.37
2022-12-20T15:33:51.590Z,3.25
2022-12-20T15:39:12.202Z,3.33
2022-12-20T15:44:21.609Z,3.35
2022-12-20T15:49:25.966Z,3.25
2022-12-20T15:54:33.736Z,3.13
2022-12-20T16:04:58.720Z,3.11
2022-12-20T16:10:00.740Z,3.14
2022-12-20T16:15:02.469Z,3.23
2022-12-20T16:20:04.950Z,3.25
2022-12-20T16:25:06.922Z,3.28
2022-12-20T16:30:09.201Z,3.22
2022-12-20T16:35:27.510Z,3.25
2022-12-20T16:40:32.052Z,3.24
2022-12-20T16:45:34.657Z,3.16
2022-12-20T16:50:41.525Z,3.10
2022-12-20T16:55:43.301Z,3.00
2022-12-20T17:00:45.205Z,2.92
2022-12-20T17:05:46.995Z,2.95
2022-12-20T17:10:49.036Z,2.97
2022-12-20T17:15:50.922Z,3.06
2022-12-20T17:20:52.669Z,3.13
2022-12-20T17:25:54.866Z,3.15
2022-12-20T17:30:57.916Z,3.21
2022-12-20T17:36:02.896Z,3.27
2022-12-20T17:41:05.825Z,3.34
2022-12-20T17:46:08.068Z,3.31
2022-12-20T17:51:16.027Z,3.33
2022-12-20T17:56:25.197Z,3.37
2022-12-20T18:01:29.922Z,3.41
2022-12-20T18:06:34.300Z,3.34
2022-12-20T18:11:36.171Z,3.25
2022-12-20T18:16:41.073Z,3.19
2022-12-20T18:21:43.006Z,3.19
2022-12-20T18:26:45.151Z,3.14
2022-12-20T18:31:46.936Z,3.08
2022-12-20T18:36:48.852Z,2.97
2022-12-20T18:41:50.551Z,2.97
2022-12-20T18:46:52.206Z,2.95
2022-12-20T18:51:53.841Z,2.93
2022-12-20T18:56:56.969Z,2.89
2022-12-20T19:01:58.928Z,2.88
2022-12-20T19:07:00.707Z,2.86
2022-12-20T19:12:03.927Z,2.96
2022-12-20T19:17:05.819Z,2.99
2022-12-20T19:22:07.595Z,3.03
2022-12-20T19:27:10.525Z,3.01
2022-12-20T19:32:12.429Z,3.06
2022-12-20T19:37:14.086Z,2.97
2022-12-20T19:42:24.934Z,2.92
2022-12-20T19:47:27.356Z,2.95
2022-12-20T19:52:29.544Z,3.03
2022-12-20T19:57:31.240Z,3.09
2022-12-20T20:02:33.121Z,3.09
2022-12-20T20:07:34.920Z,3.14
2022-12-20T20:12:38.323Z,3.15
2022-12-20T20:17:39.996Z,3.18
2022-12-20T20:22:42.645Z,3.24
2022-12-20T20:27:44.937Z,3.26
2022-12-20T20:32:47.023Z,3.29
2022-12-20T20:37:48.673Z,3.34
2022-12-20T20:42:51.630Z,3.31
2022-12-20T20:47:53.288Z,3.25
2022-12-20T20:52:55.206Z,3.29
2022-12-20T20:57:56.910Z,3.35
2022-12-20T21:02:59.654Z,3.34
2022-12-20T21:08:01.595Z,3.29
2022-12-20T21:13:04.664Z,3.21
2022-12-20T21:18:09.128Z,3.12
2022-12-20T21:23:11.808Z,3.16
2022-12-20T21:28:19.376Z,3.12
2022-12-20T21:33:22.884Z,3.14
2022-12-20T21:38:24.623Z,3.20
2022-12-20T21:43:26.584Z,3.23
2022-12-20T21:48:29.646Z,3.30
2022-12-20T21:53:33.142Z,3.28
2022-12-20T21:58:34.981Z,3.24
2022-12-20T22:03:38.017Z,3.22
2022-12-20T22:08:39.825Z,3.21
2022-12-20T22:13:42.544Z,3.23
2022-12-20T22:18:48.143Z,3.20
2022-12-20T22:23:50.447Z,3.23
2022-12-20T22:28:55.032Z,3.30
2022-12-20T22:33:57.869Z,3.29
2022-12-20T22:39:00.119Z,3.18
2022-12-20T22:44:03.028Z,3.13
2022-12-20T22:49:04.860Z,3.10
2022-12-20T22:54:06.711Z,3.10
2022-12-20T22:59:08.402Z,3.07
2022-12-20T23:04:10.070Z,2.97
2022-12-20T23:09:11.732Z,2.90
2022-12-20T23:14:38.000Z,2.97
2022-12-20T23:19:58.576Z,3.03
2022-12-20T23:25:00.741Z,3.06
2022-12-20T23:30:04.705Z,3.10
2022-12-20T23:35:12.277Z,3.12
2022-12-20T23:40:16.317Z,3.15
2022-12-20T23:45:18.050Z,3.11
2022-12-20T23:50:19.909Z,3.05
2022-12-20T23:55:21.962Z,3.10
